Edsbyn, Sweden
Current Conditions -  °F | °C
As of 9:20 AM on Sunday 23 Nov 2014 (Local Time) from ESSD Reporting Station
Overcast Overcast  
Wind Chill: 26°   Ceiling: 200
Heat Index: 32°   Visibility: 2.5mi
Dew Point: 32°   Wind: 6mph
Humidity: 100%   Direction: 80°E
Pressure: 30.36"   Gusts: NA
Location:  61.38°N, 15.82°E
Report Text: ESSD 230820Z AUTO 08005KT 4000 OVC002/// 00/00 Q1028
Loading
Personal Weather Stations






























Interactive Weather Map New forecast layout! Learn more

10-Day Weather Forecast

Advertisements
Track Severe Weather on mobile